createdAt,value
2016-03-13T00:00:04.992Z,90.34
2016-03-13T00:00:47.214Z,90.34
2016-03-13T00:01:45.811Z,90.48
2016-03-13T00:02:55.361Z,90.91
2016-03-13T00:03:55.410Z,90.82
2016-03-13T00:05:08.181Z,90.82
2016-03-13T00:05:55.399Z,90.91
2016-03-13T00:07:21.093Z,90.82
2016-03-13T00:08:05.610Z,91.01
2016-03-13T00:09:05.583Z,91.34
2016-03-13T00:10:05.616Z,91.2
2016-03-13T00:11:11.885Z,90.86
2016-03-13T00:12:18.372Z,90.3
2016-03-13T00:13:24.860Z,90.58
2016-03-13T00:14:08.752Z,90.48
2016-03-13T00:15:08.864Z,90.2
2016-03-13T00:16:08.757Z,89.82
2016-03-13T00:17:15.104Z,89.92
2016-03-13T00:18:15.076Z,89.92
2016-03-13T00:19:08.813Z,90.39
2016-03-13T00:20:08.862Z,90.58
2016-03-13T00:21:15.350Z,91.24
2016-03-13T00:22:10.273Z,90.77
2016-03-13T00:23:08.855Z,90.82
2016-03-13T00:24:08.983Z,91.15
2016-03-13T00:25:08.891Z,91.39
2016-03-13T00:26:08.972Z,90.96
2016-03-13T00:27:21.647Z,91.15
2016-03-13T00:28:08.930Z,91.1
2016-03-13T00:29:08.933Z,91.01
2016-03-13T00:30:08.952Z,90.91
2016-03-13T00:31:34.658Z,90.82
2016-03-13T00:32:18.551Z,91.72
2016-03-13T00:33:44.241Z,91.96
2016-03-13T00:34:28.150Z,91.77
2016-03-13T00:35:28.137Z,91.29
2016-03-13T00:36:28.171Z,91.05
2016-03-13T00:37:28.157Z,90.96
2016-03-13T00:38:28.302Z,90.96
2016-03-13T00:39:28.793Z,90.96
2016-03-13T00:40:28.249Z,91.05
2016-03-13T00:41:41.033Z,90.77
2016-03-13T00:42:40.973Z,91.05
2016-03-13T00:44:57.057Z,91.05
2016-03-13T00:45:57.059Z,90.3
2016-03-13T00:46:57.718Z,90.48
2016-03-13T00:47:57.080Z,90.2
2016-03-13T00:48:57.099Z,90.2
2016-03-13T00:49:57.117Z,90.48
2016-03-13T00:50:57.870Z,91.15
2016-03-13T00:51:57.748Z,90.48
2016-03-13T00:53:09.737Z,90.48
2016-03-13T00:53:57.159Z,90.58
2016-03-13T00:54:57.271Z,90.3
2016-03-13T00:56:09.933Z,90.48
2016-03-13T00:56:57.230Z,90.3
2016-03-13T00:58:16.438Z,90.39
2016-03-13T00:58:57.110Z,89.73
2016-03-13T00:59:57.285Z,89.92
2016-03-13T01:00:57.272Z,90.3
2016-03-13T01:01:57.900Z,89.82
2016-03-13T01:03:10.014Z,90.01
2016-03-13T01:03:57.296Z,89.92
2016-03-13T01:05:16.551Z,89.82
2016-03-13T01:05:57.457Z,90.11
2016-03-13T01:06:57.349Z,90.2
2016-03-13T01:07:57.432Z,89.54
2016-03-13T01:08:57.371Z,88.78
2016-03-13T01:10:16.674Z,89.06
2016-03-13T01:11:10.130Z,89.06
2016-03-13T01:12:23.132Z,88.49
2016-03-13T01:13:16.650Z,88.87
2016-03-13T01:15:23.140Z,88.68
2016-03-13T01:16:07.142Z,88.87
2016-03-13T01:17:32.833Z,88.87
2016-03-13T01:18:16.868Z,89.16
2016-03-13T01:19:42.401Z,89.06
2016-03-13T01:20:16.826Z,89.06
2016-03-13T01:22:16.800Z,89.06
2016-03-13T01:23:16.786Z,88.68
2016-03-13T01:24:23.117Z,89.06
2016-03-13T01:25:16.822Z,88.87
2016-03-13T01:26:29.576Z,88.4
2016-03-13T01:27:16.844Z,88.87
2016-03-13T01:28:16.847Z,88.59
2016-03-13T01:29:16.928Z,89.16
2016-03-13T01:30:16.914Z,88.4
2016-03-13T01:31:17.042Z,88.49
2016-03-13T01:32:23.311Z,89.06
2016-03-13T01:33:23.188Z,89.25
2016-03-13T01:34:16.957Z,89.16
2016-03-13T01:35:17.146Z,89.06
2016-03-13T01:36:16.962Z,88.59
2016-03-13T01:37:36.372Z,89.16
2016-03-13T01:38:20.452Z,88.49
2016-03-13T01:39:20.361Z,89.16
2016-03-13T01:40:20.426Z,89.25
2016-03-13T01:41:20.398Z,88.49
2016-03-13T01:42:33.165Z,89.35
2016-03-13T01:43:33.168Z,88.97
2016-03-13T01:44:46.109Z,88.97
2016-03-13T01:45:20.455Z,88.87
2016-03-13T01:47:30.257Z,88.78
2016-03-13T01:48:30.057Z,88.78
2016-03-13T01:49:30.076Z,89.06
2016-03-13T01:50:31.500Z,88.97
2016-03-13T01:51:30.112Z,88.97
2016-03-13T01:52:30.114Z,89.06
2016-03-13T01:53:31.555Z,88.68
2016-03-13T01:54:36.401Z,89.16
2016-03-13T01:55:42.888Z,89.16
2016-03-13T01:56:30.392Z,88.97
2016-03-13T01:57:30.284Z,89.16
2016-03-13T01:58:30.209Z,89.92
2016-03-13T01:59:30.227Z,89.63
2016-03-13T02:00:30.230Z,89.82
2016-03-13T02:01:30.264Z,89.92
2016-03-13T02:02:36.516Z,89.73
2016-03-13T02:03:43.019Z,89.63
2016-03-13T02:04:30.272Z,90.01
2016-03-13T02:05:55.978Z,90.11
2016-03-13T02:06:30.308Z,90.2
2016-03-13T02:07:30.327Z,90.48
2016-03-13T02:08:30.330Z,90.11
2016-03-13T02:09:43.098Z,90.3
2016-03-13T02:10:30.413Z,90.3
2016-03-13T02:11:56.072Z,89.82
2016-03-13T02:12:30.418Z,89.92
2016-03-13T02:13:30.421Z,89.63
2016-03-13T02:14:43.189Z,90.11
2016-03-13T02:15:30.474Z,90.96
2016-03-13T02:16:30.460Z,90.2
2016-03-13T02:17:30.479Z,90.77
2016-03-13T02:18:43.248Z,91.15
2016-03-13T02:19:30.500Z,91.05
2016-03-13T02:20:30.503Z,90.86
2016-03-13T02:21:30.537Z,91.24
2016-03-13T02:22:43.273Z,91.15
2016-03-13T02:23:30.557Z,91.15
2016-03-13T02:24:30.575Z,90.86
2016-03-13T02:25:30.687Z,90.86
2016-03-13T02:26:30.597Z,90.96
2016-03-13T02:27:30.662Z,90.86
2016-03-13T02:28:43.368Z,90.86
2016-03-13T02:29:36.886Z,91.05
2016-03-13T02:30:50.076Z,91.15
2016-03-13T02:31:33.985Z,90.96
2016-03-13T02:32:34.019Z,90.67
2016-03-13T02:33:34.021Z,91.05
2016-03-13T02:34:34.041Z,91.43
2016-03-13T02:35:34.028Z,91.15
2016-03-13T02:36:34.076Z,91.15
2016-03-13T02:37:34.064Z,91.05
2016-03-13T02:38:34.083Z,91.15
2016-03-13T02:39:34.100Z,90.86
2016-03-13T02:40:34.150Z,90.77
2016-03-13T02:41:34.262Z,90.77
2016-03-13T02:42:34.124Z,91.05
2016-03-13T02:43:34.221Z,90.96
2016-03-13T02:44:34.177Z,91.15
2016-03-13T02:45:34.195Z,90.96
2016-03-13T02:46:34.182Z,91.81
2016-03-13T02:47:34.434Z,91.81
2016-03-13T02:48:46.953Z,91.24
2016-03-13T02:49:46.971Z,91.53
2016-03-13T02:50:34.239Z,91.81
2016-03-13T02:51:34.257Z,91.81
2016-03-13T02:52:34.276Z,91.81
2016-03-13T02:54:49.719Z,91.34
2016-03-13T02:55:49.768Z,91.05
2016-03-13T02:56:49.521Z,91.62
2016-03-13T02:58:02.306Z,91.53
2016-03-13T02:58:49.605Z,91.91
2016-03-13T02:59:49.545Z,91.53
2016-03-13T03:00:49.579Z,91.81
2016-03-13T03:01:49.832Z,92.14
2016-03-13T03:02:49.600Z,92.47
2016-03-13T03:03:49.619Z,92.43
2016-03-13T03:04:49.622Z,92.47
2016-03-13T03:06:02.374Z,92.19
2016-03-13T03:06:50.064Z,92
2016-03-13T03:08:08.879Z,92.19
2016-03-13T03:08:49.678Z,91.91
2016-03-13T03:10:20.996Z,92.19
2016-03-13T03:11:04.855Z,92
2016-03-13T03:12:04.890Z,91.91
2016-03-13T03:13:04.877Z,92.38
2016-03-13T03:14:30.569Z,92.24
2016-03-13T03:15:21.588Z,92.24
2016-03-13T03:16:21.621Z,92.29
2016-03-13T03:17:21.609Z,92.52
2016-03-13T03:18:21.611Z,92.47
2016-03-13T03:19:40.817Z,92.66
2016-03-13T03:20:34.367Z,92.14
2016-03-13T03:21:21.745Z,92.33
2016-03-13T03:22:21.653Z,92.33
2016-03-13T03:23:21.703Z,92.71
2016-03-13T03:24:22.300Z,92.24
2016-03-13T03:25:47.427Z,92.19
2016-03-13T03:26:31.351Z,92.29
2016-03-13T03:27:31.386Z,92.38
2016-03-13T03:28:44.138Z,92.33
2016-03-13T03:29:31.407Z,92.33
2016-03-13T03:30:31.409Z,92.47
2016-03-13T03:31:31.662Z,92.38
2016-03-13T03:32:31.447Z,92.8
2016-03-13T03:33:32.870Z,92.43
2016-03-13T03:34:31.467Z,92.8
2016-03-13T03:35:31.486Z,92.99
2016-03-13T03:36:31.910Z,92.9
2016-03-13T03:37:31.538Z,93.09
2016-03-13T03:38:31.650Z,92.71
2016-03-13T03:39:31.544Z,92.8
2016-03-13T03:40:44.296Z,92.9
2016-03-13T03:41:31.564Z,93.09
2016-03-13T03:42:31.644Z,92.9
2016-03-13T03:43:31.601Z,92.71
2016-03-13T03:44:31.650Z,92.71
2016-03-13T03:45:31.606Z,92.8
2016-03-13T03:46:44.359Z,92.99
2016-03-13T03:47:32.252Z,92.9
2016-03-13T03:48:57.317Z,92.9
2016-03-13T03:49:41.210Z,92.8
2016-03-13T03:50:41.245Z,92.8
2016-03-13T03:51:53.965Z,92.99
2016-03-13T03:52:47.500Z,93.28
2016-03-13T03:54:00.439Z,92.8
2016-03-13T03:54:41.301Z,93.18
2016-03-13T03:55:41.273Z,93.37
2016-03-13T03:56:41.307Z,93.47
2016-03-13T03:57:41.356Z,93.75
2016-03-13T03:58:41.328Z,93.85
2016-03-13T03:59:41.440Z,93.28
2016-03-13T04:00:41.333Z,93.47
2016-03-13T04:01:41.602Z,93.37
2016-03-13T04:02:41.386Z,93.56
2016-03-13T04:03:41.436Z,93.47
2016-03-13T04:04:41.392Z,92.99
2016-03-13T04:05:41.425Z,93.28
2016-03-13T04:06:41.444Z,92.9
2016-03-13T04:07:41.447Z,92.9
2016-03-13T04:08:41.464Z,93.56
2016-03-13T04:09:49.155Z,93.47
2016-03-13T04:10:41.486Z,93.18
2016-03-13T04:12:07.160Z,92.9
2016-03-13T04:12:41.538Z,92.9
2016-03-13T04:13:41.510Z,93.28
2016-03-13T04:14:41.527Z,93.56
2016-03-13T04:15:41.577Z,93.85
2016-03-13T04:16:54.408Z,93.66
2016-03-13T04:17:41.567Z,94.04
2016-03-13T04:18:41.616Z,93.28
2016-03-13T04:19:54.338Z,93.37
2016-03-13T04:20:41.715Z,93.75
2016-03-13T04:22:00.812Z,93.09
2016-03-13T04:22:41.659Z,93.37
2016-03-13T04:24:07.364Z,93.37
2016-03-13T04:24:51.367Z,93.18
2016-03-13T04:25:51.198Z,92.99
2016-03-13T04:26:51.372Z,92.9
2016-03-13T04:27:51.391Z,93.28
2016-03-13T04:28:57.675Z,92.61
2016-03-13T04:29:52.834Z,93.28
2016-03-13T04:30:51.446Z,92.9
2016-03-13T04:31:51.448Z,92.8
2016-03-13T04:32:51.467Z,92.8
2016-03-13T04:33:51.470Z,92.8
2016-03-13T04:34:51.676Z,92.71
2016-03-13T04:35:51.506Z,92.99
2016-03-13T04:36:51.494Z,92.71
2016-03-13T04:37:51.559Z,92.61
2016-03-13T04:39:04.280Z,92.71
2016-03-13T04:39:57.814Z,92.71
2016-03-13T04:41:10.772Z,92.9
2016-03-13T04:41:51.600Z,92.43
2016-03-13T04:42:53.010Z,92.71
2016-03-13T04:43:51.590Z,92.33
2016-03-13T04:44:54.655Z,93.09
2016-03-13T04:45:53.033Z,93.13
2016-03-13T04:46:51.754Z,92.8
2016-03-13T04:47:51.648Z,92.24
2016-03-13T04:48:51.682Z,92.29
2016-03-13T04:49:51.684Z,92.19
2016-03-13T04:50:51.718Z,92.43
2016-03-13T04:51:51.720Z,92.47
2016-03-13T04:52:51.770Z,92
2016-03-13T04:53:52.335Z,91.81
2016-03-13T04:54:51.745Z,92.29
2016-03-13T04:55:51.762Z,92.14
2016-03-13T04:56:51.781Z,92.47
2016-03-13T04:57:52.393Z,92.19
2016-03-13T04:58:51.802Z,92.52
2016-03-13T04:59:52.414Z,92.47
2016-03-13T05:00:51.823Z,92.47
2016-03-13T05:02:04.592Z,92
2016-03-13T05:02:51.845Z,91.77
2016-03-13T05:04:17.553Z,92.38
2016-03-13T05:05:01.397Z,92.38
2016-03-13T05:06:20.620Z,92
2016-03-13T05:07:01.636Z,91.96
2016-03-13T05:08:27.111Z,91.81
2016-03-13T05:09:01.455Z,91.91
2016-03-13T05:10:01.535Z,91.72
2016-03-13T05:11:01.506Z,91.15
2016-03-13T05:12:01.509Z,90.96
2016-03-13T05:13:01.511Z,90.86
2016-03-13T05:14:07.780Z,91.15
2016-03-13T05:15:01.533Z,91.81
2016-03-13T05:16:02.957Z,92
2016-03-13T05:17:01.569Z,92.38
2016-03-13T05:18:20.777Z,92.52
2016-03-13T05:19:07.871Z,92.8
2016-03-13T05:20:32.924Z,93.09
2016-03-13T05:21:16.817Z,92.61
2016-03-13T05:22:16.820Z,92.71
2016-03-13T05:23:16.854Z,92.99
2016-03-13T05:24:16.872Z,93.28
2016-03-13T05:25:29.609Z,93.28
2016-03-13T05:26:17.002Z,93.18
2016-03-13T05:27:42.598Z,92.99
2016-03-13T05:28:17.508Z,92.71
2016-03-13T05:30:42.606Z,92.8
2016-03-13T05:31:17.562Z,92.99
2016-03-13T05:32:29.706Z,93.37
2016-03-13T05:33:16.974Z,93.09
2016-03-13T05:34:17.008Z,93.37
2016-03-13T05:35:17.620Z,93.47
2016-03-13T05:36:29.748Z,93.37
2016-03-13T05:37:17.079Z,93.66
2016-03-13T05:38:42.706Z,93.56
2016-03-13T05:40:29.712Z,93.56
2016-03-13T05:41:29.808Z,93.18
2016-03-13T05:42:29.733Z,93.56
2016-03-13T05:43:29.814Z,93.66
2016-03-13T05:44:29.754Z,93.56
2016-03-13T05:45:29.772Z,93.56
2016-03-13T05:46:31.214Z,93.09
2016-03-13T05:47:29.794Z,94.04
2016-03-13T05:48:30.364Z,93.85
2016-03-13T05:49:29.880Z,93.75
2016-03-13T05:50:30.430Z,94.04
2016-03-13T05:51:42.574Z,93.94
2016-03-13T05:52:30.497Z,93.75
2016-03-13T05:53:55.532Z,94.23
2016-03-13T05:54:39.410Z,93.37
2016-03-13T05:56:05.116Z,94.04
2016-03-13T05:56:43.399Z,93.85
2016-03-13T05:58:53.129Z,93.66
2016-03-13T05:59:53.178Z,94.04
2016-03-13T06:00:53.274Z,93.94
2016-03-13T06:01:53.137Z,93.85
2016-03-13T06:02:53.217Z,93.85
2016-03-13T06:03:53.189Z,93.94
2016-03-13T06:04:53.848Z,94.04
2016-03-13T06:05:53.194Z,93.94
2016-03-13T06:06:53.256Z,93.66
2016-03-13T06:07:53.228Z,93.56
2016-03-13T06:08:53.481Z,93.56
2016-03-13T06:09:53.249Z,94.04
2016-03-13T06:10:53.455Z,93.94
2016-03-13T06:12:03.004Z,92.99
2016-03-13T06:13:03.039Z,93.47
2016-03-13T06:14:03.042Z,93.09
2016-03-13T06:15:28.734Z,92.99
2016-03-13T06:16:03.078Z,92.9
2016-03-13T06:17:03.268Z,93.18
2016-03-13T06:18:03.099Z,93.09
2016-03-13T06:19:03.102Z,92.71
2016-03-13T06:20:03.120Z,92.33
2016-03-13T06:21:03.122Z,92.14
2016-03-13T06:22:03.141Z,91.96
2016-03-13T06:23:03.158Z,91.77
2016-03-13T06:24:15.914Z,91.39
2016-03-13T06:25:03.196Z,91.77
2016-03-13T06:26:03.245Z,91.96
2016-03-13T06:27:03.201Z,91.67
2016-03-13T06:28:03.422Z,90.91
2016-03-13T06:29:03.237Z,91.01
2016-03-13T06:30:03.240Z,90.72
2016-03-13T06:31:03.274Z,91.2
2016-03-13T06:32:03.495Z,91.39
2016-03-13T06:33:03.357Z,90.2
2016-03-13T06:34:03.298Z,90.06
2016-03-13T06:35:03.315Z,90.34
2016-03-13T06:36:09.662Z,90.06
2016-03-13T06:37:03.337Z,90.06
2016-03-13T06:38:03.355Z,90.16
2016-03-13T06:39:03.358Z,89.87
2016-03-13T06:40:03.376Z,90.16
2016-03-13T06:41:03.988Z,89.69
2016-03-13T06:42:03.429Z,89.78
2016-03-13T06:43:03.259Z,89.82
2016-03-13T06:44:03.450Z,90.16
2016-03-13T06:45:06.656Z,89.59
2016-03-13T06:46:03.470Z,89.69
2016-03-13T06:47:03.473Z,89.87
2016-03-13T06:48:03.476Z,89.87
2016-03-13T06:49:03.510Z,89.25
2016-03-13T06:50:03.638Z,89.12
2016-03-13T06:51:03.515Z,89.06
2016-03-13T06:52:03.549Z,89.25
2016-03-13T06:53:03.552Z,88.97
2016-03-13T06:54:03.805Z,89.02
2016-03-13T06:55:09.838Z,89.35
2016-03-13T06:56:03.826Z,88.59
2016-03-13T06:57:21.534Z,89.06
2016-03-13T06:58:03.612Z,88.49
2016-03-13T06:59:03.662Z,88.59
2016-03-13T07:00:03.649Z,88.02
2016-03-13T07:01:03.652Z,87.74
2016-03-13T07:02:04.608Z,87.74
2016-03-13T07:03:03.813Z,87.79
2016-03-13T07:04:03.723Z,87.55
2016-03-13T07:05:03.835Z,87.55
2016-03-13T07:06:03.743Z,87.74
2016-03-13T07:07:03.746Z,87.08
2016-03-13T07:08:03.749Z,86.89
2016-03-13T07:09:03.767Z,86.98
2016-03-13T07:10:03.754Z,86.7
2016-03-13T07:11:03.787Z,86.7
2016-03-13T07:12:03.790Z,86.41
2016-03-13T07:13:03.825Z,86.32
2016-03-13T07:14:03.828Z,86.13
2016-03-13T07:15:03.830Z,86.04
2016-03-13T07:16:03.848Z,85.66
2016-03-13T07:17:03.883Z,85.38
2016-03-13T07:18:03.916Z,85
2016-03-13T07:19:03.903Z,85.75
2016-03-13T07:20:16.643Z,85.94
2016-03-13T07:21:10.174Z,85.38
2016-03-13T07:22:29.601Z,84.52
2016-03-13T07:23:13.510Z,84.52
2016-03-13T07:24:13.482Z,84.23
2016-03-13T07:25:13.484Z,84.52
2016-03-13T07:26:13.519Z,84.14
2016-03-13T07:27:13.521Z,83.86
2016-03-13T07:28:13.540Z,84
2016-03-13T07:29:13.543Z,84.33
2016-03-13T07:30:13.560Z,83.76
2016-03-13T07:31:13.579Z,83.76
2016-03-13T07:32:13.613Z,83.81
2016-03-13T07:33:13.616Z,83.76
2016-03-13T07:34:13.618Z,84.14
2016-03-13T07:35:13.621Z,84.14
2016-03-13T07:36:13.639Z,83.95
2016-03-13T07:37:13.642Z,84.23
2016-03-13T07:38:13.676Z,84.23
2016-03-13T07:39:13.694Z,84.33
2016-03-13T07:40:13.712Z,84.42
2016-03-13T07:41:13.731Z,84.23
2016-03-13T07:42:13.717Z,83.81
2016-03-13T07:43:13.830Z,83.43
2016-03-13T07:44:13.785Z,83.62
2016-03-13T07:45:13.897Z,82.95
2016-03-13T07:46:13.791Z,81.72
2016-03-13T07:47:13.871Z,82.1
2016-03-13T07:48:13.811Z,82.01
2016-03-13T07:49:13.861Z,82.1
2016-03-13T07:50:26.583Z,81.44
2016-03-13T07:51:20.117Z,80.77
2016-03-13T07:52:13.870Z,81.06
2016-03-13T07:53:13.888Z,81.15
2016-03-13T07:54:39.578Z,80.68
2016-03-13T07:55:13.956Z,79.93
2016-03-13T07:56:13.943Z,79.83
2016-03-13T07:57:13.946Z,79.83
2016-03-13T07:58:13.979Z,80.3
2016-03-13T07:59:26.716Z,80.3
2016-03-13T08:00:14.001Z,80.4
2016-03-13T08:01:14.034Z,80.3
2016-03-13T08:02:14.006Z,80.3
2016-03-13T08:03:14.040Z,79.83
2016-03-13T08:04:14.308Z,79.83
2016-03-13T08:05:15.483Z,79.83
2016-03-13T08:06:14.079Z,80.02
2016-03-13T08:07:14.082Z,79.74
2016-03-13T08:08:14.100Z,79.83
2016-03-13T08:09:14.134Z,79.64
2016-03-13T08:10:14.121Z,80.11
2016-03-13T08:11:14.139Z,79.45
2016-03-13T08:12:26.908Z,79.55
2016-03-13T08:13:14.176Z,79.64
2016-03-13T08:14:26.960Z,79.36
2016-03-13T08:15:14.212Z,79.93
2016-03-13T08:16:14.450Z,80.02
2016-03-13T08:17:14.234Z,79.93
2016-03-13T08:18:14.283Z,79.07
2016-03-13T08:19:14.255Z,79.55
2016-03-13T08:20:14.289Z,78.88
2016-03-13T08:21:27.041Z,79.74
2016-03-13T08:22:14.294Z,79.55
2016-03-13T08:23:14.343Z,79.74
2016-03-13T08:24:14.658Z,79.74
2016-03-13T08:25:14.380Z,78.73
2016-03-13T08:26:14.366Z,78.64
2016-03-13T08:27:14.386Z,79.02
2016-03-13T08:28:14.404Z,78.45
2016-03-13T08:29:14.407Z,78.54
2016-03-13T08:30:14.441Z,78.64
2016-03-13T08:31:14.443Z,78.54
2016-03-13T08:32:14.540Z,78.35
2016-03-13T08:33:14.464Z,77.97
2016-03-13T08:34:14.482Z,77.59
2016-03-13T08:35:14.500Z,77.12
2016-03-13T08:36:14.505Z,77.03
2016-03-13T08:37:14.509Z,77.59
2016-03-13T08:38:14.530Z,77.59
2016-03-13T08:39:14.487Z,77.4
2016-03-13T08:40:15.117Z,76.74
2016-03-13T08:41:14.552Z,77.69
2016-03-13T08:42:14.706Z,77.78
2016-03-13T08:43:14.578Z,78.07
2016-03-13T08:44:27.264Z,77.69
2016-03-13T08:45:14.814Z,77.69
2016-03-13T08:46:40.237Z,76.74
2016-03-13T08:47:27.316Z,77.22
2016-03-13T08:48:14.706Z,77.4
2016-03-13T08:49:33.832Z,76.65
2016-03-13T08:50:14.833Z,76.65
2016-03-13T08:51:33.929Z,76.46
2016-03-13T08:52:19.274Z,75.26
2016-03-13T08:53:19.277Z,74.88
2016-03-13T08:54:19.293Z,74.51
2016-03-13T08:55:19.311Z,74.13
2016-03-13T08:56:32.079Z,73.84
2016-03-13T08:57:38.549Z,73.56
2016-03-13T08:58:19.365Z,73.46
2016-03-13T08:59:19.212Z,73.75
2016-03-13T09:00:32.120Z,73.84
2016-03-13T09:02:19.594Z,74.51
2016-03-13T09:03:19.440Z,74.6
2016-03-13T09:04:38.756Z,74.51
2016-03-13T09:05:19.462Z,74.79
2016-03-13T09:06:19.480Z,74.88
2016-03-13T09:07:19.505Z,74.51
2016-03-13T09:08:19.507Z,74.41
2016-03-13T09:09:19.526Z,74.79
2016-03-13T09:10:32.279Z,74.32
2016-03-13T09:11:19.562Z,74.6
2016-03-13T09:12:38.878Z,74.13
2016-03-13T09:13:19.599Z,73.56
2016-03-13T09:14:45.289Z,72.8
2016-03-13T09:15:32.370Z,72.27
2016-03-13T09:17:38.876Z,72.71
2016-03-13T09:18:19.675Z,72.42
2016-03-13T09:19:51.100Z,72.99
2016-03-13T09:20:35.070Z,73.08
2016-03-13T09:21:35.012Z,73.56
2016-03-13T09:22:35.092Z,73.08
2016-03-13T09:23:35.064Z,72.99
2016-03-13T09:24:35.066Z,72.52
2016-03-13T09:25:35.084Z,72.14
2016-03-13T09:26:35.086Z,71.7
2016-03-13T09:27:35.230Z,70.94
2016-03-13T09:28:35.171Z,71.7
2016-03-13T09:29:35.158Z,69.33
2016-03-13T09:30:35.177Z,69.36
2016-03-13T09:31:35.288Z,68.89
2016-03-13T09:32:35.213Z,68.98
2016-03-13T09:33:36.685Z,68.51
2016-03-13T09:34:35.233Z,68.7
2016-03-13T09:35:35.268Z,68.23
2016-03-13T09:36:35.286Z,67.94
2016-03-13T09:37:35.335Z,68.89
2016-03-13T09:38:35.479Z,68.89
2016-03-13T09:39:35.310Z,69.36
2016-03-13T09:40:35.329Z,69.99
2016-03-13T09:41:35.971Z,70.47
2016-03-13T09:42:35.490Z,71.03
2016-03-13T09:43:35.383Z,69.99
2016-03-13T09:44:35.401Z,70.18
2016-03-13T09:45:41.670Z,71.03
2016-03-13T09:46:35.438Z,70.56
2016-03-13T09:47:35.457Z,71.03
2016-03-13T09:48:35.990Z,71.41
2016-03-13T09:49:35.493Z,70.84
2016-03-13T09:50:35.761Z,70.94
2016-03-13T09:51:36.279Z,71.6
2016-03-13T09:52:48.281Z,71.8
2016-03-13T09:53:48.364Z,71.6
2016-03-13T09:54:35.569Z,70.47
2016-03-13T09:55:35.744Z,70.37
2016-03-13T09:56:35.606Z,69.65
2016-03-13T09:57:35.624Z,68.79
2016-03-13T09:58:36.252Z,68.79
2016-03-13T09:59:48.411Z,68.79
2016-03-13T10:00:37.116Z,68.79
2016-03-13T10:02:01.369Z,68.6
2016-03-13T10:02:35.715Z,68.79
2016-03-13T10:03:35.733Z,68.79
2016-03-13T10:04:35.736Z,69.08
2016-03-13T10:05:35.771Z,69.27
2016-03-13T10:06:35.867Z,68.32
2016-03-13T10:07:42.057Z,68.89
2016-03-13T10:08:35.950Z,68.98
2016-03-13T10:09:55.062Z,69.93
2016-03-13T10:10:35.877Z,68.89
2016-03-13T10:11:35.896Z,68.51
2016-03-13T10:12:35.899Z,68.41
2016-03-13T10:13:35.932Z,67.37
2016-03-13T10:14:35.920Z,67.18
2016-03-13T10:15:35.969Z,66.71
2016-03-13T10:16:35.956Z,66.8
2016-03-13T10:17:36.318Z,66.89
2016-03-13T10:18:48.742Z,66.52
2016-03-13T10:19:43.698Z,66.74
2016-03-13T10:20:55.232Z,66.71
2016-03-13T10:21:39.406Z,66.83
2016-03-13T10:22:39.222Z,67.08
2016-03-13T10:23:51.928Z,67.12
2016-03-13T10:24:39.243Z,66.64
2016-03-13T10:25:58.450Z,67.75
2016-03-13T10:26:39.280Z,68.89
2016-03-13T10:27:40.689Z,67.37
2016-03-13T10:28:40.738Z,67.65
2016-03-13T10:29:39.319Z,67.02
2016-03-13T10:30:39.353Z,67.08
2016-03-13T10:31:39.355Z,66.61
2016-03-13T10:32:39.358Z,66.27
2016-03-13T10:33:39.392Z,66.93
2016-03-13T10:34:39.427Z,67.46
2016-03-13T10:35:40.835Z,67.85
2016-03-13T10:36:39.463Z,67.65
2016-03-13T10:37:39.574Z,67.08
2016-03-13T10:38:39.499Z,67.18
2016-03-13T10:39:39.502Z,66.23
2016-03-13T10:40:39.521Z,65.6
2016-03-13T10:41:39.868Z,66.27
2016-03-13T10:42:39.557Z,67.18
2016-03-13T10:43:39.810Z,67.56
2016-03-13T10:44:39.641Z,66.99
2016-03-13T10:45:39.659Z,65.66
2016-03-13T10:46:39.709Z,65.03
2016-03-13T10:47:39.868Z,63.23
2016-03-13T10:48:39.714Z,63.07
2016-03-13T10:49:39.685Z,62.4
2016-03-13T10:50:39.703Z,62.88
2016-03-13T10:51:39.706Z,62.88
2016-03-13T10:52:39.740Z,62.5
2016-03-13T10:53:52.525Z,65.06
2016-03-13T10:54:39.762Z,65.5
2016-03-13T10:55:39.780Z,65.41
2016-03-13T10:56:52.533Z,64.84
2016-03-13T10:58:56.398Z,65.31
2016-03-13T10:59:49.853Z,64.46
2016-03-13T11:00:49.855Z,63.79
2016-03-13T11:01:56.171Z,63.64
2016-03-13T11:02:49.877Z,62.97
2016-03-13T11:03:50.145Z,62.12
2016-03-13T11:04:50.038Z,61.45
2016-03-13T11:06:09.213Z,62.31
2016-03-13T11:06:50.606Z,62.5
2016-03-13T11:09:25.396Z,58.37
2016-03-13T11:10:09.396Z,58.09
2016-03-13T11:11:09.429Z,59.3
2016-03-13T11:12:40.732Z,60.16
2016-03-13T11:13:09.435Z,60.16
2016-03-13T11:14:09.437Z,61.45
2016-03-13T11:15:09.471Z,61.74
2016-03-13T11:16:09.708Z,61.83
2016-03-13T11:17:09.773Z,62.78
2016-03-13T11:18:09.526Z,63.17
2016-03-13T11:19:09.638Z,63.35
2016-03-13T11:20:09.548Z,62.97
2016-03-13T11:21:09.598Z,63.26
2016-03-13T11:22:09.646Z,64.75
2016-03-13T11:23:09.681Z,65.79
2016-03-13T11:24:09.886Z,67.02
2016-03-13T11:25:09.701Z,68.51
2016-03-13T11:26:09.673Z,68.89
2016-03-13T11:27:09.691Z,69.36
2016-03-13T11:28:09.772Z,68.79
2016-03-13T11:29:09.728Z,68.89
2016-03-13T11:30:09.761Z,68.41
2016-03-13T11:31:09.749Z,67.21
2016-03-13T11:32:09.798Z,65.6
2016-03-13T11:33:09.801Z,65.5
2016-03-13T11:34:09.820Z,66.27
2016-03-13T11:35:09.885Z,67.69
2016-03-13T11:36:10.309Z,68.41
2016-03-13T11:37:09.875Z,69.17
2016-03-13T11:38:09.940Z,68.23
2016-03-13T11:39:09.942Z,69.08
2016-03-13T11:40:09.945Z,68.7
2016-03-13T11:41:09.948Z,68.79
2016-03-13T11:42:24.094Z,65.79
2016-03-13T11:43:10.032Z,65.35
2016-03-13T11:44:35.693Z,65.35
2016-03-13T11:45:10.255Z,66.01
2016-03-13T11:46:10.024Z,66.3
2016-03-13T11:47:10.104Z,67.88
2016-03-13T11:48:10.310Z,68.07
2016-03-13T11:49:10.110Z,67.5
2016-03-13T11:50:10.112Z,66.74
2016-03-13T11:51:22.865Z,67.21
2016-03-13T11:52:10.149Z,67.12
2016-03-13T11:53:10.168Z,65.5
2016-03-13T11:54:10.217Z,65.12
2016-03-13T11:55:10.204Z,66.08
2016-03-13T11:56:10.223Z,66.36
2016-03-13T11:57:10.225Z,66.74
2016-03-13T11:58:10.587Z,67.12
2016-03-13T11:59:10.278Z,68.44
2016-03-13T12:00:10.373Z,68.44
2016-03-13T12:01:10.393Z,68.23
2016-03-13T12:02:10.396Z,68.51
2016-03-13T12:03:10.586Z,68.04
2016-03-13T12:04:10.432Z,66.55
2016-03-13T12:05:10.404Z,66.46
2016-03-13T12:06:10.656Z,66.27
2016-03-13T12:07:10.722Z,67.12
2016-03-13T12:08:10.677Z,68.35
2016-03-13T12:09:10.711Z,69.65
2016-03-13T12:10:10.479Z,68.79
2016-03-13T12:11:10.544Z,67.97
2016-03-13T12:12:10.719Z,67.31
2016-03-13T12:13:10.550Z,67.27
2016-03-13T12:14:10.600Z,67.21
2016-03-13T12:15:10.727Z,66.55
2016-03-13T12:16:10.574Z,66.36
2016-03-13T12:17:10.732Z,66.17
2016-03-13T12:18:10.641Z,67.02
2016-03-13T12:19:10.707Z,67.18
2016-03-13T12:20:10.663Z,67.5
2016-03-13T12:21:10.743Z,66.74
2016-03-13T12:22:10.715Z,66.17
2016-03-13T12:23:10.796Z,66.27
2016-03-13T12:24:10.986Z,65.79
2016-03-13T12:25:10.754Z,66.36
2016-03-13T12:26:11.023Z,67.31
2016-03-13T12:27:10.806Z,67.21
2016-03-13T12:28:11.246Z,67.31
2016-03-13T12:29:10.671Z,68.13
2016-03-13T12:30:10.845Z,68.7
2016-03-13T12:31:11.443Z,68.89
2016-03-13T12:32:11.117Z,69.46
2016-03-13T12:33:11.151Z,69.84
2016-03-13T12:34:10.920Z,70.03
2016-03-13T12:35:11.359Z,69.74
2016-03-13T12:36:10.956Z,69.36
2016-03-13T12:37:11.145Z,69.93
2016-03-13T12:38:11.242Z,70.4
2016-03-13T12:39:11.104Z,70.31
2016-03-13T12:40:11.106Z,70.21
2016-03-13T12:41:11.266Z,70.4
2016-03-13T12:42:11.066Z,71.55
2016-03-13T12:43:11.334Z,69.74
2016-03-13T12:44:11.305Z,69.46
2016-03-13T12:45:11.152Z,69.08
2016-03-13T12:46:11.139Z,68.79
2016-03-13T12:47:11.375Z,68.6
2016-03-13T12:48:11.160Z,69.08
2016-03-13T12:49:11.224Z,69.27
2016-03-13T12:50:11.400Z,69.74
2016-03-13T12:51:11.465Z,69.65
2016-03-13T12:52:11.248Z,69.55
2016-03-13T12:53:11.314Z,69.84
2016-03-13T12:54:11.723Z,70.21
2016-03-13T12:55:11.538Z,70.4
2016-03-13T12:56:11.307Z,70.5
2016-03-13T12:57:11.371Z,70.31
2016-03-13T12:58:11.562Z,69.27
2016-03-13T12:59:11.392Z,68.04
2016-03-13T13:00:11.426Z,67.88
2016-03-13T13:01:11.398Z,68.54
2016-03-13T13:02:11.463Z,67.21
2016-03-13T13:03:11.404Z,67.02
2016-03-13T13:04:11.671Z,67.12
2016-03-13T13:05:11.534Z,67.79
2016-03-13T13:06:11.458Z,67.97
2016-03-13T13:07:11.773Z,68.64
2016-03-13T13:08:11.526Z,69.46
2016-03-13T13:09:11.579Z,69.36
2016-03-13T13:10:11.894Z,69.74
2016-03-13T13:11:11.538Z,69.84
2016-03-13T13:12:11.588Z,69.84
2016-03-13T13:13:11.590Z,69.93